Flight Track Log - Related Links

Times and Time Zones

All times are in EDT time to prevent confusion due to time zone crossing. See the ABX903 flight status page for this flight to view local times or setup timezone preferences in your user account.

Time Position Orientation Groundspeed Altitude Reporting Facility
EDT Latitude Longitude Course Direction KTS MPH feet Rate Location/Type
Fri 11:13:54 PM 47.5433 -122.3164 333° Northwest 147 169 1,000  Level Seattle Center
Fri 11:14:31 PM 47.5669 -122.3342 333° Northwest 157 181 1,800 1,837 Climbing Seattle Center
Fri 11:15:32 PM 47.6167 -122.3961 320° Northwest 227 261 4,000 2,262 Climbing Seattle Center
Fri 11:16:33 PM 47.6739 -122.4531 326° Northwest 279 321 6,400 2,579 Climbing Seattle Center
Fri 11:17:33 PM 47.7156 -122.3644 55° Northeast 284 327 9,200 2,281 Climbing Seattle Center
Fri 11:18:34 PM 47.6842 -122.2511 112° Southeast 311 358 11,000 1,869 Climbing Seattle Center
Fri 11:19:35 PM 47.6258 -122.1289 125° Southeast 363 418 13,000 2,311 Climbing Seattle Center
Fri 11:20:36 PM 47.5653 -122.0014 125° Southeast 378 435 15,700 2,430 Climbing Seattle Center
Fri 11:21:36 PM 47.5042 -121.8658 124° Southeast 394 453 17,900 2,182 Climbing Seattle Center
Fri 11:22:37 PM 47.4925 -121.7083 96° East 423 487 20,100 2,066 Climbing Seattle Center
Fri 11:23:38 PM 47.4886 -121.5367 92° East 425 489 22,100 1,934 Climbing Seattle Center
Fri 11:24:38 PM 47.4842 -121.3550 92° East 442 509 24,000 1,934 Climbing Seattle Center
Fri 11:25:39 PM 47.4792 -121.1283 92° East 464 534 26,000 1,869 Climbing Seattle Center
Fri 11:26:40 PM 47.4689 -120.9356 94° East 475 547 27,800 1,475 Climbing Seattle Center
Fri 11:27:41 PM 47.4581 -120.7267 94° East 493 567 29,000 1,240 Climbing Seattle Center
Fri 11:28:41 PM 47.4464 -120.5211 95° East 503 579 30,300 1,537 Climbing Seattle Center
Fri 11:29:42 PM 47.4361 -120.3142 94° East 507 583 32,100 1,721 Climbing Seattle Center
Fri 11:30:43 PM 47.4228 -120.1103 95° East 502 578 33,800 1,537 Climbing Seattle Center
Fri 11:31:43 PM 47.4117 -119.9067 95° East 500 575 35,200 1,388 Climbing Seattle Center
Fri 11:32:44 PM 47.3983 -119.7039 95° East 499 574 36,600 836 Climbing Seattle Center
Fri 11:33:45 PM 47.3836 -119.5006 96° East 500 575 36,900 148 Climbing Seattle Center
Fri 11:34:46 PM 47.3706 -119.2961 95° East 503 579 36,900  Level Seattle Center
Fri 11:35:46 PM 47.3592 -119.0950 95° East 495 570 36,900  Level Seattle Center
Fri 11:36:47 PM 47.3456 -118.8989 96° East 485 558 36,900  Level Seattle Center
Fri 11:37:48 PM 47.3328 -118.7039 95° East 479 551 36,900  Level Seattle Center
Fri 11:38:48 PM 47.3186 -118.5078 96° East 482 555 36,900  Level Seattle Center
Fri 11:39:49 PM 47.3044 -118.3117 96° East 485 558 36,900 49 Level Seattle Center
Fri 11:40:50 PM 47.2889 -118.1136 97° East 488 562 37,000  Climbing Seattle Center
Fri 11:41:51 PM 47.2750 -117.9153 96° East 491 565 36,900  Descending Seattle Center
Fri 11:42:51 PM 47.2572 -117.6789 96° East 489 563 37,000  Climbing Seattle Center
Fri 11:43:52 PM 47.2408 -117.4814 97° East 491 565 36,900 -49 Descending Seattle Center
Fri 11:44:53 PM 47.2250 -117.2836 97° East 493 567 36,900  Level Seattle Center
Fri 11:45:54 PM 47.2081 -117.0881 97° East 491 565 36,900  Level Seattle Center
Fri 11:46:54 PM 47.1906 -116.8925 97° East 489 563 36,900 50 Level Seattle Center
Fri 11:47:55 PM 47.1739 -116.6953 97° East 491 565 37,000 49 Climbing Seattle Center
Fri 11:48:56 PM 47.1572 -116.4978 97° East 492 566 37,000 -49 Level Seattle Center
Fri 11:49:57 PM 47.1397 -116.3025 97° East 488 562 36,900 -50 Descending Seattle Center
Fri 11:50:57 PM 47.1228 -116.1058 97° East 489 563 36,900 50 Level Seattle Center
Fri 11:51:58 PM 47.1044 -115.9106 98° East 487 560 37,000  Climbing Seattle Center
Fri 11:52:59 PM 47.0861 -115.7161 98° East 484 557 36,900  Descending Seattle Center
Fri 11:53:27 PM 47.0756 -115.5972 97° East 483 556 37,000  Climbing Salt Lake Center
Fri 11:54:29 PM 47.0558 -115.4039 98° East 482 555 36,900 -65 Descending Salt Lake Center
Fri 11:55:00 PM 47.0444 -115.2881 98° East 482 555 36,900  Level Seattle Center
Fri 11:56:01 PM 47.0264 -115.0978 98° East 477 549 36,900  Level Seattle Center
Fri 11:57:02 PM 47.0083 -114.9083 98° East 473 544 36,900  Level Seattle Center
Fri 11:57:32 PM 46.9992 -114.8283 100° East 476 548 36,900  Level Salt Lake Center
Fri 11:58:33 PM 46.9786 -114.6389 99° East 475 547 36,900 49 Level Salt Lake Center
Fri 11:59:34 PM 46.9575 -114.4486 99° East 475 547 37,000  Climbing Salt Lake Center
Sat 12:00:35 AM 46.9331 -114.2239 99° East 471 542 36,900  Descending Salt Lake Center
Sat 12:01:36 AM 46.9114 -114.0325 99° East 476 548 37,000  Climbing Salt Lake Center
Sat 12:02:37 AM 46.8908 -113.8425 99° East 476 548 36,900 -49 Descending Salt Lake Center
Sat 12:03:38 AM 46.8692 -113.6544 99° East 472 543 36,900  Level Salt Lake Center
Sat 12:04:39 AM 46.8483 -113.4669 99° East 471 542 36,900  Level Salt Lake Center
Sat 12:05:40 AM 46.8250 -113.2792 100° East 471 542 36,900  Level Salt Lake Center
Sat 12:06:41 AM 46.8033 -113.0897 99° East 475 547 36,900  Level Salt Lake Center
Sat 12:07:42 AM 46.7817 -112.9014 99° East 474 545 36,900  Level Salt Lake Center
Sat 12:08:43 AM 46.7561 -112.6822 100° East 474 545 36,900 49 Level Salt Lake Center
Sat 12:09:44 AM 46.7317 -112.4939 101° East 476 548 37,000 49 Climbing Salt Lake Center
Sat 12:10:45 AM 46.7086 -112.3044 100° East 476 548 37,000  Level Salt Lake Center
Sat 12:11:46 AM 46.6836 -112.1144 101° East 480 552 37,000 -49 Level Salt Lake Center
Sat 12:12:47 AM 46.6583 -111.9258 101° East 478 550 36,900 -49 Descending Salt Lake Center
Sat 12:13:49 AM 46.6344 -111.7364 100° East 481 554 36,900  Level Salt Lake Center
Sat 12:14:50 AM 46.6094 -111.5450 101° East 483 556 36,900  Level Salt Lake Center
Sat 12:15:51 AM 46.5833 -111.3544 101° East 484 557 36,900 49 Level Salt Lake Center
Sat 12:16:52 AM 46.5575 -111.1631 101° East 486 559 37,000  Climbing Salt Lake Center
Sat 12:17:53 AM 46.5300 -110.9706 102° East 488 562 36,900 -49 Descending Salt Lake Center
Sat 12:18:54 AM 46.4958 -110.7386 102° East 491 565 36,900 49 Level Salt Lake Center
Sat 12:19:55 AM 46.4714 -110.5589 101° East 492 566 37,000 49 Climbing Salt Lake Center
Sat 12:20:56 AM 46.4389 -110.3442 102° East 490 564 37,000  Level Salt Lake Center
Sat 12:21:57 AM 46.4128 -110.1569 101° East 494 568 37,000  Level Salt Lake Center
Sat 12:22:58 AM 46.3853 -109.9717 102° East 492 566 37,000  Level Salt Lake Center
Sat 12:24:00 AM 46.3533 -109.7553 102° East 491 565 37,000  Level Salt Lake Center
Sat 12:25:01 AM 46.3244 -109.5697 103° East 492 566 37,000  Level Salt Lake Center
Sat 12:26:02 AM 46.2922 -109.3544 102° East 491 565 37,000  Level Salt Lake Center
Sat 12:27:03 AM 46.2628 -109.1697 103° East 490 564 37,000  Level Salt Lake Center
Sat 12:28:04 AM 46.2342 -108.9858 103° East 491 565 37,000  Level Salt Lake Center
Sat 12:29:05 AM 46.1994 -108.7706 103° East 492 566 37,000  Level Salt Lake Center
Sat 12:30:06 AM 46.1703 -108.5864 103° East 488 562 37,000  Level Salt Lake Center
Sat 12:31:07 AM 46.1406 -108.4014 103° East 493 567 37,000  Level Salt Lake Center
Sat 12:32:08 AM 46.1044 -108.1850 103° East 497 572 37,000  Level Salt Lake Center
Sat 12:33:09 AM 46.0736 -108.0036 104° East 489 563 37,000  Level Salt Lake Center
Sat 12:34:10 AM 46.0428 -107.8192 103° East 493 567 37,000  Level Salt Lake Center
Sat 12:35:11 AM 46.0061 -107.6039 104° East 495 570 37,000  Level Salt Lake Center
Sat 12:36:12 AM 45.9742 -107.4192 104° East 497 572 37,000  Level Salt Lake Center
Sat 12:37:13 AM 45.9417 -107.2369 104° East 494 568 37,000  Level Salt Lake Center
Sat 12:38:14 AM 45.9028 -107.0222 105° East 496 571 37,000  Level Salt Lake Center
Sat 12:39:15 AM 45.8692 -106.8386 105° East 496 571 37,000  Level Salt Lake Center
Sat 12:40:16 AM 45.8347 -106.6553 105° East 497 572 37,000  Level Salt Lake Center
Sat 12:41:17 AM 45.7947 -106.4419 105° East 496 571 37,000  Level Salt Lake Center
Sat 12:42:18 AM 45.7603 -106.2589 105° East 496 571 37,000  Level Salt Lake Center
Sat 12:43:19 AM 45.7319 -106.0825 103° East 488 562 37,000  Level Salt Lake Center
Sat 12:44:20 AM 45.6919 -105.8708 105° East 491 565 37,000  Level Salt Lake Center
Sat 12:45:21 AM 45.6569 -105.6894 105° East 494 568 37,000  Level Salt Lake Center
Sat 12:46:22 AM 45.6219 -105.5089 105° East 494 568 37,000  Level Salt Lake Center
Sat 12:47:23 AM 45.5797 -105.2964 106° East 497 572 37,000  Level Salt Lake Center
Sat 12:48:24 AM 45.5422 -105.1150 106° East 498 573 37,000  Level Salt Lake Center
Sat 12:49:25 AM 45.5008 -104.9031 105° East 497 572 37,000  Level Salt Lake Center
Sat 12:50:26 AM 45.4639 -104.7214 106° East 499 574 37,000 -49 Level Salt Lake Center
Sat 12:51:27 AM 45.4239 -104.5281 106° East 500 575 36,900  Descending Salt Lake Center
Sat 12:52:28 AM 45.3847 -104.3386 106° East 502 578 37,000  Climbing Salt Lake Center
Sat 12:53:29 AM 45.3475 -104.1481 105° East 502 578 36,900  Descending Salt Lake Center
Sat 12:54:30 AM 45.3089 -103.9572 106° East 505 581 37,000  Climbing Salt Lake Center
Sat 12:55:31 AM 45.2703 -103.7667 106° East 505 581 36,900 -49 Descending Salt Lake Center
Sat 12:56:32 AM 45.2303 -103.5744 106° East 510 587 36,900  Level Salt Lake Center
Sat 12:57:33 AM 45.1900 -103.3833 107° East 508 585 36,900  Level Salt Lake Center
Sat 12:58:34 AM 45.1486 -103.1908 107° East 512 589 36,900 66 Level Salt Lake Center
Sat 12:59:04 AM 45.1222 -103.0833 109° East 510 587 37,000 67 Climbing Minneapolis Center
Sat 01:00:04 AM 45.0803 -102.8903 107° East 511 588 37,000  Level Minneapolis Center
Sat 01:01:04 AM 45.0372 -102.6975 107° East 513 590 37,000  Level Minneapolis Center
Sat 01:02:05 AM 44.9939 -102.5075 108° East 512 589 37,000  Level Minneapolis Center
Sat 01:03:05 AM 44.9519 -102.3147 107° East 513 590 37,000  Level Minneapolis Center
Sat 01:04:06 AM 44.9086 -102.1217 108° East 514 592 37,000  Level Minneapolis Center
Sat 01:05:06 AM 44.8642 -101.9300 108° East 515 593 37,000  Level Minneapolis Center
Sat 01:06:06 AM 44.8194 -101.7381 108° East 516 594 37,000  Level Minneapolis Center
Sat 01:07:07 AM 44.7750 -101.5464 108° East 517 595 37,000  Level Minneapolis Center
Sat 01:08:07 AM 44.7300 -101.3544 108° East 517 595 37,000  Level Minneapolis Center
Sat 01:09:07 AM 44.6853 -101.1622 108° East 518 596 37,000  Level Minneapolis Center
Sat 01:10:08 AM 44.6386 -100.9697 109° East 520 598 37,000  Level Minneapolis Center
Sat 01:11:08 AM 44.5908 -100.7769 109° East 523 602 37,000  Level Minneapolis Center
Sat 01:12:09 AM 44.5439 -100.5831 109° East 527 606 37,000  Level Minneapolis Center
Sat 01:13:09 AM 44.4961 -100.3914 109° East 526 605 37,000 350 Level Minneapolis Center
Sat 01:14:09 AM 44.4386 -100.1619 109° East 525 604 37,700 893 Climbing Minneapolis Center
Sat 01:15:10 AM 44.3922 -99.9722 109° East 522 601 38,800 645 Climbing Minneapolis Center
Sat 01:16:10 AM 44.3436 -99.7828 110° East 522 601 39,000 100 Climbing Minneapolis Center
Sat 01:17:10 AM 44.2961 -99.5939 109° East 520 598 39,000  Level Minneapolis Center
Sat 01:18:11 AM 44.2478 -99.4097 110° East 512 589 39,000  Level Minneapolis Center
Sat 01:19:11 AM 44.2000 -99.2214 109° East 516 594 39,000  Level Minneapolis Center
Sat 01:20:11 AM 44.1486 -99.0333 111° Southeast 521 600 39,000  Level Minneapolis Center
Sat 01:21:12 AM 44.0981 -98.8447 110° East 522 601 39,000  Level Minneapolis Center
Sat 01:22:12 AM 44.0528 -98.6769 111° Southeast 522 601 39,000  Level Minneapolis Center
Sat 01:23:12 AM 44.0022 -98.4886 110° East 523 602 39,000  Level Minneapolis Center
Sat 01:24:13 AM 43.9503 -98.3003 111° Southeast 524 603 39,000  Level Minneapolis Center
Sat 01:25:13 AM 43.8992 -98.1111 110° East 526 605 39,000  Level Minneapolis Center
Sat 01:26:13 AM 43.8381 -97.8875 111° Southeast 521 600 39,000  Level Minneapolis Center
Sat 01:27:14 AM 43.7864 -97.7011 111° Southeast 522 601 39,000  Level Minneapolis Center
Sat 01:28:14 AM 43.7356 -97.5156 111° Southeast 521 600 39,000  Level Minneapolis Center
Sat 01:29:14 AM 43.6833 -97.3303 111° Southeast 521 600 39,000  Level Minneapolis Center
Sat 01:30:15 AM 43.6317 -97.1467 111° Southeast 518 596 39,000  Level Minneapolis Center
Sat 01:31:15 AM 43.5792 -96.9639 112° Southeast 516 594 39,000  Level Minneapolis Center
Sat 01:32:15 AM 43.5269 -96.7831 112° Southeast 514 592 39,000  Level Minneapolis Center
Sat 01:33:16 AM 43.4742 -96.6019 112° Southeast 513 590 39,000  Level Minneapolis Center
Sat 01:34:16 AM 43.4217 -96.4200 112° Southeast 514 592 39,000  Level Minneapolis Center
Sat 01:35:16 AM 43.3692 -96.2389 112° Southeast 515 593 39,000  Level Minneapolis Center
Sat 01:36:17 AM 43.3164 -96.0578 112° Southeast 514 592 39,000  Level Minneapolis Center
Sat 01:37:17 AM 43.2631 -95.8772 112° Southeast 515 593 39,000  Level Minneapolis Center
Sat 01:38:17 AM 43.2092 -95.6975 112° Southeast 514 592 39,000  Level Minneapolis Center
Sat 01:39:17 AM 43.1539 -95.5169 113° Southeast 516 594 39,000  Level Minneapolis Center
Sat 01:40:18 AM 43.0983 -95.3364 113° Southeast 517 595 39,000  Level Minneapolis Center
Sat 01:41:18 AM 43.0428 -95.1550 113° Southeast 519 597 39,000  Level Minneapolis Center
Sat 01:42:18 AM 42.9875 -94.9764 113° Southeast 516 594 39,000  Level Minneapolis Center
Sat 01:43:19 AM 42.9322 -94.7992 113° Southeast 511 588 39,000  Level Minneapolis Center
Sat 01:44:19 AM 42.8714 -94.5983 112° Southeast 511 588 39,000  Level Minneapolis Center
Sat 01:45:19 AM 42.8153 -94.4219 113° Southeast 511 588 39,000  Level Minneapolis Center
Sat 01:46:20 AM 42.7592 -94.2472 114° Southeast 509 586 39,000  Level Minneapolis Center
Sat 01:47:20 AM 42.7133 -94.1056 114° Southeast 514 592 39,000  Level Minneapolis Center
Sat 01:48:20 AM 42.6469 -93.8967 113° Southeast 509 586 39,000  Level Minneapolis Center
Sat 01:49:20 AM 42.5894 -93.7233 114° Southeast 508 585 39,000  Level Minneapolis Center
Sat 01:50:21 AM 42.5331 -93.5492 114° Southeast 510 587 39,000  Level Minneapolis Center
Sat 01:51:21 AM 42.4892 -93.4103 113° Southeast 509 586 39,000  Level Minneapolis Center
Sat 01:52:21 AM 42.4194 -93.2019 114° Southeast 509 586 39,000  Level Minneapolis Center
Sat 01:53:21 AM 42.3625 -93.0289 114° Southeast 510 587 39,000  Level Minneapolis Center
Sat 01:54:22 AM 42.3050 -92.8567 114° Southeast 509 586 39,000  Level Minneapolis Center
Sat 01:55:22 AM 42.2481 -92.6842 114° Southeast 510 587 39,000  Level Minneapolis Center
Sat 01:56:22 AM 42.1908 -92.5125 114° Southeast 509 586 39,000  Level Minneapolis Center
Sat 01:57:22 AM 42.1325 -92.3419 115° Southeast 508 585 39,000  Level Minneapolis Center
Sat 01:57:40 AM 42.1083 -92.2731 115° Southeast 506 582 39,000  Level Chicago Center
Sat 01:58:40 AM 42.0503 -92.1033 115° Southeast 506 582 39,000  Level Chicago Center
Sat 01:59:40 AM 41.9911 -91.9350 115° Southeast 505 581 39,000  Level Chicago Center
Sat 02:00:40 AM 41.9325 -91.7686 115° Southeast 501 577 39,000  Level Chicago Center
Sat 02:01:40 AM 41.8747 -91.6011 115° Southeast 502 578 39,000  Level Chicago Center
Sat 02:02:41 AM 41.8167 -91.4350 115° Southeast 500 575 39,000  Level Chicago Center
Sat 02:03:41 AM 41.7586 -91.2697 115° Southeast 497 572 39,000  Level Chicago Center
Sat 02:04:41 AM 41.7006 -91.1069 115° Southeast 493 567 39,000  Level Chicago Center
Sat 02:05:41 AM 41.6419 -90.9419 115° Southeast 494 568 39,000  Level Chicago Center
Sat 02:06:41 AM 41.5828 -90.7769 116° Southeast 498 573 39,000  Level Chicago Center
Sat 02:07:41 AM 41.5156 -90.5900 116° Southeast 492 566 39,000  Level Chicago Center
Sat 02:08:42 AM 41.4547 -90.4242 116° Southeast 497 572 39,000  Level Chicago Center
Sat 02:09:42 AM 41.3950 -90.2603 116° Southeast 493 567 39,000  Level Chicago Center
Sat 02:10:42 AM 41.3336 -90.0950 116° Southeast 494 568 39,000  Level Chicago Center
Sat 02:11:42 AM 41.2725 -89.9297 116° Southeast 495 570 39,000  Level Chicago Center
Sat 02:12:42 AM 41.2111 -89.7642 116° Southeast 497 572 39,000  Level Chicago Center
Sat 02:13:42 AM 41.1489 -89.5981 116° Southeast 498 573 39,000  Level Chicago Center
Sat 02:14:43 AM 41.0869 -89.4331 116° Southeast 497 572 39,000  Level Chicago Center
Sat 02:15:43 AM 41.0250 -89.2672 116° Southeast 498 573 39,000  Level Chicago Center
Sat 02:16:43 AM 40.9622 -89.1028 117° Southeast 498 573 39,000  Level Chicago Center
Sat 02:17:43 AM 40.8994 -88.9392 117° Southeast 498 573 39,000  Level Chicago Center
Sat 02:18:43 AM 40.8367 -88.7786 117° Southeast 496 571 39,000  Level Chicago Center
Sat 02:19:43 AM 40.7744 -88.6172 117° Southeast 498 573 39,000  Level Chicago Center
Sat 02:20:43 AM 40.7111 -88.4583 118° Southeast 495 570 39,000  Level Chicago Center
Sat 02:21:44 AM 40.6475 -88.3017 118° Southeast 492 566 39,000  Level Chicago Center
Sat 02:22:44 AM 40.5842 -88.1428 118° Southeast 495 570 39,000  Level Chicago Center
Sat 02:23:44 AM 40.5208 -87.9858 118° Southeast 492 566 39,000  Level Chicago Center
Sat 02:24:44 AM 40.4567 -87.8281 118° Southeast 493 567 39,000  Level Chicago Center
Sat 02:25:44 AM 40.3942 -87.6711 118° Southeast 489 563 39,000  Level Chicago Center
Sat 02:26:44 AM 40.3308 -87.5169 118° Southeast 484 557 39,000  Level Chicago Center
Sat 02:27:44 AM 40.2708 -87.3778 119° Southeast 471 542 39,000  Level Chicago Center
Sat 02:28:44 AM 40.2092 -87.2286 118° Southeast 469 540 39,000  Level Chicago Center
Sat 02:29:45 AM 40.1467 -87.0786 119° Southeast 472 543 39,000 -58 Level Chicago Center
Sat 02:30:28 AM 40.0956 -86.9569 119° Southeast 472 543 38,900 -641 Descending Indianapolis Center
Sat 02:31:28 AM 40.0325 -86.8061 119° Southeast 475 547 37,900 -1,200 Descending Indianapolis Center
Sat 02:32:28 AM 39.9728 -86.6508 117° Southeast 478 550 36,500 -1,750 Descending Indianapolis Center
Sat 02:33:28 AM 39.8917 -86.5214 129° Southeast 463 533 34,400 -1,950 Descending Indianapolis Center
Sat 02:34:28 AM 39.8067 -86.4022 133° Southeast 454 522 32,600 -1,850 Descending Indianapolis Center
Sat 02:35:28 AM 39.7261 -86.2853 132° Southeast 437 503 30,700 -1,850 Descending Indianapolis Center
Sat 02:36:28 AM 39.6597 -86.1900 132° Southeast 411 473 28,900 -2,033 Descending Indianapolis Center
Sat 02:37:29 AM 39.5861 -86.0861 133° Southeast 398 458 26,600 -2,380 Descending Indianapolis Center
Sat 02:38:29 AM 39.5050 -85.9536 128° Southeast 399 459 24,100 -2,300 Descending Indianapolis Center
Sat 02:39:29 AM 39.4997 -85.8111 93° East 407 468 22,000 -1,900 Descending Indianapolis Center
Sat 02:40:29 AM 39.5083 -85.6692 85° East 400 460 20,300 -1,700 Descending Indianapolis Center
Sat 02:41:29 AM 39.5183 -85.5344 84° East 386 444 18,600 -1,700 Descending Indianapolis Center
Sat 02:42:29 AM 39.4831 -85.4164 111° Southeast 368 423 16,900 -1,700 Descending Indianapolis Center
Sat 02:43:29 AM 39.4283 -85.3167 125° Southeast 346 398 15,200 -1,700 Descending Indianapolis Center
Sat 02:44:29 AM 39.3739 -85.2181 126° Southeast 338 389 13,500 -1,636 Descending Indianapolis Center
Sat 02:45:30 AM 39.3217 -85.1222 125° Southeast 329 379 11,900 -1,488 Descending Indianapolis Center
Sat 02:46:30 AM 39.2731 -85.0275 124° Southeast 320 368 10,500 -1,450 Descending Indianapolis Center
Sat 02:47:30 AM 39.2392 -84.9286 114° Southeast 305 351 9,000 -1,500 Descending Indianapolis Center
Sat 02:48:18 AM 39.2167 -84.8500 110° East 302 348 7,800 -1,111 Descending Cincinnati TRACON
Sat 02:49:18 AM 39.1833 -84.7500 113° Southeast 284 327 7,000 -1,000 Descending Cincinnati TRACON
Sat 02:50:18 AM 39.1667 -84.6500 102° East 277 319 5,800 -1,000 Descending Cincinnati TRACON
Sat 02:51:18 AM 39.1667 -84.5500 90° East 254 292 5,000 -950 Descending Cincinnati TRACON
Sat 02:52:18 AM 39.1333 -84.4833 123° Southeast 211 243 3,900 -1,053 Descending Cincinnati TRACON
Sat 02:53:12 AM 39.0833 -84.4833 180° South 219 252 3,000 -526 Descending Cincinnati TRACON
Sat 02:54:12 AM 39.0500 -84.5333 229° Southwest 190 219 2,900 -500 Descending Cincinnati TRACON
Sat 02:55:12 AM 39.0500 -84.5833 270° West 157 181 2,000 -793 Descending Cincinnati TRACON
Sat 02:56:13 AM 39.0500 -84.6333 270° West 113 130 1,300 -689 Descending Cincinnati TRACON

Login

Don't have an account? Register now (free) for customized features, flight alerts, and more!